sensor_id;sensor_type;location;lat;lon;timestamp;P1;durP1;ratioP1;P2;durP2;ratioP2
20002;SDS011;10162;41.600;23.806;2023-06-22T00:00:16;16.40;;;11.30;;
20002;SDS011;10162;41.600;23.806;2023-06-22T00:06:38;18.50;;;10.77;;
20002;SDS011;10162;41.600;23.806;2023-06-22T00:09:04;12.47;;;10.33;;
20002;SDS011;10162;41.600;23.806;2023-06-22T00:15:26;13.70;;;10.00;;
20002;SDS011;10162;41.600;23.806;2023-06-22T00:17:52;12.53;;;11.23;;
20002;SDS011;10162;41.600;23.806;2023-06-22T00:20:18;11.83;;;10.60;;
20002;SDS011;10162;41.600;23.806;2023-06-22T00:26:37;12.73;;;10.20;;
20002;SDS011;10162;41.600;23.806;2023-06-22T00:29:05;12.33;;;11.03;;
20002;SDS011;10162;41.600;23.806;2023-06-22T00:35:25;12.10;;;10.37;;
20002;SDS011;10162;41.600;23.806;2023-06-22T00:37:55;12.97;;;10.10;;
20002;SDS011;10162;41.600;23.806;2023-06-22T00:40:29;13.53;;;10.80;;
20002;SDS011;10162;41.600;23.806;2023-06-22T00:46:52;13.33;;;10.23;;
20002;SDS011;10162;41.600;23.806;2023-06-22T00:49:20;11.83;;;10.23;;
20002;SDS011;10162;41.600;23.806;2023-06-22T00:55:44;12.10;;;10.70;;
20002;SDS011;10162;41.600;23.806;2023-06-22T00:58:13;12.17;;;9.80;;
20002;SDS011;10162;41.600;23.806;2023-06-22T01:00:40;15.10;;;10.80;;
20002;SDS011;10162;41.600;23.806;2023-06-22T01:03:07;12.23;;;11.03;;
20002;SDS011;10162;41.600;23.806;2023-06-22T01:05:36;12.70;;;11.03;;
20002;SDS011;10162;41.600;23.806;2023-06-22T01:11:08;11.10;;;10.00;;
20002;SDS011;10162;41.600;23.806;2023-06-22T01:14:02;14.07;;;11.07;;
20002;SDS011;10162;41.600;23.806;2023-06-22T01:16:58;11.20;;;10.03;;
20002;SDS011;10162;41.600;23.806;2023-06-22T01:29:03;17.03;;;10.47;;
20002;SDS011;10162;41.600;23.806;2023-06-22T01:35:25;12.40;;;10.03;;
20002;SDS011;10162;41.600;23.806;2023-06-22T01:37:52;10.77;;;9.67;;
20002;SDS011;10162;41.600;23.806;2023-06-22T01:40:18;14.00;;;10.67;;
20002;SDS011;10162;41.600;23.806;2023-06-22T01:46:40;11.83;;;10.03;;
20002;SDS011;10162;41.600;23.806;2023-06-22T01:49:07;13.70;;;10.20;;
20002;SDS011;10162;41.600;23.806;2023-06-22T01:55:29;16.07;;;10.90;;
20002;SDS011;10162;41.600;23.806;2023-06-22T01:57:55;12.30;;;10.80;;
20002;SDS011;10162;41.600;23.806;2023-06-22T02:00:21;12.53;;;10.90;;
20002;SDS011;10162;41.600;23.806;2023-06-22T02:06:45;11.77;;;10.57;;
20002;SDS011;10162;41.600;23.806;2023-06-22T02:09:16;11.83;;;10.23;;
20002;SDS011;10162;41.600;23.806;2023-06-22T02:15:39;13.37;;;11.03;;
20002;SDS011;10162;41.600;23.806;2023-06-22T02:18:05;12.40;;;10.73;;
20002;SDS011;10162;41.600;23.806;2023-06-22T02:20:31;13.17;;;10.43;;
20002;SDS011;10162;41.600;23.806;2023-06-22T02:26:51;12.63;;;10.57;;
20002;SDS011;10162;41.600;23.806;2023-06-22T02:29:17;12.10;;;10.03;;
20002;SDS011;10162;41.600;23.806;2023-06-22T02:35:37;16.33;;;11.17;;
20002;SDS011;10162;41.600;23.806;2023-06-22T02:38:04;13.13;;;10.97;;
20002;SDS011;10162;41.600;23.806;2023-06-22T02:40:30;13.23;;;11.17;;
20002;SDS011;10162;41.600;23.806;2023-06-22T02:46:51;13.33;;;10.43;;
20002;SDS011;10162;41.600;23.806;2023-06-22T02:49:18;12.23;;;10.93;;
20002;SDS011;10162;41.600;23.806;2023-06-22T02:55:37;11.57;;;10.37;;
20002;SDS011;10162;41.600;23.806;2023-06-22T02:58:05;13.47;;;11.20;;
20002;SDS011;10162;41.600;23.806;2023-06-22T03:00:33;14.30;;;10.67;;
20002;SDS011;10162;41.600;23.806;2023-06-22T03:06:53;15.77;;;11.30;;
20002;SDS011;10162;41.600;23.806;2023-06-22T03:09:19;14.30;;;11.87;;
20002;SDS011;10162;41.600;23.806;2023-06-22T03:15:39;17.90;;;12.23;;
20002;SDS011;10162;41.600;23.806;2023-06-22T03:18:05;16.50;;;12.57;;
20002;SDS011;10162;41.600;23.806;2023-06-22T03:20:31;15.43;;;12.73;;
20002;SDS011;10162;41.600;23.806;2023-06-22T03:26:54;13.43;;;11.50;;
20002;SDS011;10162;41.600;23.806;2023-06-22T03:29:22;13.27;;;11.27;;
20002;SDS011;10162;41.600;23.806;2023-06-22T03:35:43;15.90;;;13.27;;
20002;SDS011;10162;41.600;23.806;2023-06-22T03:38:10;18.50;;;14.30;;
20002;SDS011;10162;41.600;23.806;2023-06-22T03:40:36;13.50;;;11.90;;
20002;SDS011;10162;41.600;23.806;2023-06-22T03:46:57;117.27;;;56.00;;
20002;SDS011;10162;41.600;23.806;2023-06-22T03:49:22;101.30;;;48.93;;
20002;SDS011;10162;41.600;23.806;2023-06-22T03:55:51;19.93;;;15.27;;
20002;SDS011;10162;41.600;23.806;2023-06-22T03:58:19;17.57;;;13.33;;
20002;SDS011;10162;41.600;23.806;2023-06-22T04:00:46;15.97;;;13.30;;
20002;SDS011;10162;41.600;23.806;2023-06-22T04:03:13;15.30;;;13.33;;
20002;SDS011;10162;41.600;23.806;2023-06-22T04:05:39;19.03;;;13.50;;
20002;SDS011;10162;41.600;23.806;2023-06-22T04:08:15;14.67;;;12.70;;
20002;SDS011;10162;41.600;23.806;2023-06-22T04:10:41;15.20;;;13.00;;
20002;SDS011;10162;41.600;23.806;2023-06-22T04:13:07;15.57;;;13.80;;
20002;SDS011;10162;41.600;23.806;2023-06-22T04:15:33;16.63;;;13.17;;
20002;SDS011;10162;41.600;23.806;2023-06-22T04:17:58;15.77;;;12.37;;
20002;SDS011;10162;41.600;23.806;2023-06-22T04:20:24;15.03;;;12.33;;
20002;SDS011;10162;41.600;23.806;2023-06-22T04:26:47;15.70;;;11.53;;
20002;SDS011;10162;41.600;23.806;2023-06-22T04:29:14;13.53;;;11.77;;
20002;SDS011;10162;41.600;23.806;2023-06-22T04:35:34;12.93;;;11.40;;
20002;SDS011;10162;41.600;23.806;2023-06-22T04:38:00;13.47;;;11.53;;
20002;SDS011;10162;41.600;23.806;2023-06-22T04:40:26;14.93;;;12.43;;
20002;SDS011;10162;41.600;23.806;2023-06-22T04:46:46;14.63;;;11.27;;
20002;SDS011;10162;41.600;23.806;2023-06-22T04:49:19;14.67;;;12.47;;
20002;SDS011;10162;41.600;23.806;2023-06-22T04:55:40;13.40;;;11.73;;
20002;SDS011;10162;41.600;23.806;2023-06-22T04:58:07;15.93;;;11.70;;
20002;SDS011;10162;41.600;23.806;2023-06-22T05:00:33;13.53;;;12.13;;
20002;SDS011;10162;41.600;23.806;2023-06-22T05:03:05;21.80;;;12.50;;
20002;SDS011;10162;41.600;23.806;2023-06-22T05:05:36;14.00;;;11.90;;
20002;SDS011;10162;41.600;23.806;2023-06-22T05:08:02;12.10;;;10.80;;
20002;SDS011;10162;41.600;23.806;2023-06-22T05:10:28;11.93;;;10.50;;
20002;SDS011;10162;41.600;23.806;2023-06-22T05:16:48;12.60;;;10.53;;
20002;SDS011;10162;41.600;23.806;2023-06-22T05:19:15;11.50;;;9.87;;
20002;SDS011;10162;41.600;23.806;2023-06-22T05:25:35;13.77;;;10.87;;
20002;SDS011;10162;41.600;23.806;2023-06-22T05:28:01;13.43;;;11.57;;
20002;SDS011;10162;41.600;23.806;2023-06-22T05:30:37;12.73;;;10.67;;
20002;SDS011;10162;41.600;23.806;2023-06-22T05:36:57;13.90;;;11.35;;
20002;SDS011;10162;41.600;23.806;2023-06-22T05:39:25;13.93;;;10.40;;
20002;SDS011;10162;41.600;23.806;2023-06-22T05:45:46;12.60;;;10.70;;
20002;SDS011;10162;41.600;23.806;2023-06-22T05:48:13;15.32;;;12.45;;
20002;SDS011;10162;41.600;23.806;2023-06-22T05:50:38;12.90;;;11.55;;
20002;SDS011;10162;41.600;23.806;2023-06-22T05:53:06;13.38;;;11.77;;
20002;SDS011;10162;41.600;23.806;2023-06-22T05:55:32;12.57;;;11.27;;
20002;SDS011;10162;41.600;23.806;2023-06-22T05:57:58;13.02;;;11.63;;
20002;SDS011;10162;41.600;23.806;2023-06-22T06:00:24;13.48;;;11.55;;
20002;SDS011;10162;41.600;23.806;2023-06-22T06:06:45;12.55;;;11.20;;
20002;SDS011;10162;41.600;23.806;2023-06-22T06:09:13;12.27;;;11.00;;
20002;SDS011;10162;41.600;23.806;2023-06-22T06:15:34;12.98;;;11.43;;
20002;SDS011;10162;41.600;23.806;2023-06-22T06:18:00;11.90;;;10.75;;
20002;SDS011;10162;41.600;23.806;2023-06-22T06:20:27;16.35;;;11.90;;
20002;SDS011;10162;41.600;23.806;2023-06-22T06:26:49;12.27;;;10.95;;
20002;SDS011;10162;41.600;23.806;2023-06-22T06:29:15;12.32;;;11.13;;
20002;SDS011;10162;41.600;23.806;2023-06-22T06:44:24;10.75;;;9.65;;
20002;SDS011;10162;41.600;23.806;2023-06-22T06:50:43;11.68;;;10.48;;
20002;SDS011;10162;41.600;23.806;2023-06-22T06:53:10;10.52;;;9.52;;
20002;SDS011;10162;41.600;23.806;2023-06-22T06:59:30;12.05;;;10.95;;
20002;SDS011;10162;41.600;23.806;2023-06-22T07:01:56;12.25;;;10.95;;
20002;SDS011;10162;41.600;23.806;2023-06-22T07:04:21;13.02;;;11.73;;
20002;SDS011;10162;41.600;23.806;2023-06-22T07:10:41;10.20;;;9.20;;
20002;SDS011;10162;41.600;23.806;2023-06-22T07:13:07;11.00;;;9.98;;
20002;SDS011;10162;41.600;23.806;2023-06-22T07:19:26;11.93;;;10.82;;
20002;SDS011;10162;41.600;23.806;2023-06-22T07:21:53;12.30;;;11.02;;
20002;SDS011;10162;41.600;23.806;2023-06-22T07:24:19;13.05;;;11.85;;
20002;SDS011;10162;41.600;23.806;2023-06-22T07:30:40;12.75;;;11.45;;
20002;SDS011;10162;41.600;23.806;2023-06-22T07:33:07;14.00;;;11.35;;
20002;SDS011;10162;41.600;23.806;2023-06-22T07:39:28;12.98;;;11.68;;
20002;SDS011;10162;41.600;23.806;2023-06-22T07:41:54;13.10;;;11.82;;
20002;SDS011;10162;41.600;23.806;2023-06-22T07:44:19;12.75;;;11.45;;
20002;SDS011;10162;41.600;23.806;2023-06-22T07:51:05;12.88;;;11.75;;
20002;SDS011;10162;41.600;23.806;2023-06-22T07:53:31;13.55;;;10.88;;
20002;SDS011;10162;41.600;23.806;2023-06-22T07:59:51;11.27;;;10.27;;
20002;SDS011;10162;41.600;23.806;2023-06-22T08:02:18;11.95;;;10.75;;
20002;SDS011;10162;41.600;23.806;2023-06-22T08:08:38;9.20;;;8.30;;
20002;SDS011;10162;41.600;23.806;2023-06-22T08:11:04;9.48;;;8.68;;
20002;SDS011;10162;41.600;23.806;2023-06-22T08:13:31;9.68;;;8.77;;
20002;SDS011;10162;41.600;23.806;2023-06-22T08:19:51;12.07;;;9.48;;
20002;SDS011;10162;41.600;23.806;2023-06-22T08:22:17;9.90;;;9.00;;
20002;SDS011;10162;41.600;23.806;2023-06-22T08:28:38;9.35;;;8.55;;
20002;SDS011;10162;41.600;23.806;2023-06-22T08:31:04;9.30;;;8.40;;
20002;SDS011;10162;41.600;23.806;2023-06-22T08:33:30;9.75;;;8.75;;
20002;SDS011;10162;41.600;23.806;2023-06-22T08:39:52;8.98;;;8.13;;
20002;SDS011;10162;41.600;23.806;2023-06-22T08:42:19;9.07;;;8.18;;
20002;SDS011;10162;41.600;23.806;2023-06-22T08:44:44;9.38;;;8.50;;
20002;SDS011;10162;41.600;23.806;2023-06-22T08:47:10;10.02;;;8.70;;
20002;SDS011;10162;41.600;23.806;2023-06-22T08:49:36;8.82;;;8.02;;
20002;SDS011;10162;41.600;23.806;2023-06-22T08:52:02;9.35;;;7.30;;
20002;SDS011;10162;41.600;23.806;2023-06-22T08:54:28;9.48;;;8.48;;
20002;SDS011;10162;41.600;23.806;2023-06-22T09:00:48;8.38;;;7.38;;
20002;SDS011;10162;41.600;23.806;2023-06-22T09:03:15;8.63;;;7.72;;
20002;SDS011;10162;41.600;23.806;2023-06-22T09:09:35;8.10;;;7.32;;
20002;SDS011;10162;41.600;23.806;2023-06-22T09:12:01;8.02;;;7.22;;
20002;SDS011;10162;41.600;23.806;2023-06-22T09:14:26;7.95;;;7.25;;
20002;SDS011;10162;41.600;23.806;2023-06-22T09:19:45;7.68;;;6.97;;
20002;SDS011;10162;41.600;23.806;2023-06-22T09:22:12;8.02;;;7.22;;
20002;SDS011;10162;41.600;23.806;2023-06-22T09:24:38;8.63;;;7.82;;
20002;SDS011;10162;41.600;23.806;2023-06-22T09:27:04;9.05;;;8.00;;
20002;SDS011;10162;41.600;23.806;2023-06-22T09:29:30;8.13;;;7.38;;
20002;SDS011;10162;41.600;23.806;2023-06-22T09:31:58;8.60;;;7.80;;
20002;SDS011;10162;41.600;23.806;2023-06-22T09:34:27;8.65;;;7.95;;
20002;SDS011;10162;41.600;23.806;2023-06-22T09:40:15;8.65;;;7.75;;
20002;SDS011;10162;41.600;23.806;2023-06-22T09:42:42;7.95;;;7.25;;
20002;SDS011;10162;41.600;23.806;2023-06-22T09:45:22;7.72;;;7.03;;
20002;SDS011;10162;41.600;23.806;2023-06-22T09:47:48;10.05;;;7.32;;
20002;SDS011;10162;41.600;23.806;2023-06-22T09:50:13;8.00;;;7.30;;
20002;SDS011;10162;41.600;23.806;2023-06-22T09:52:39;8.95;;;6.78;;
20002;SDS011;10162;41.600;23.806;2023-06-22T09:58:12;6.97;;;6.38;;
20002;SDS011;10162;41.600;23.806;2023-06-22T10:00:40;7.28;;;6.65;;
20002;SDS011;10162;41.600;23.806;2023-06-22T10:03:07;7.05;;;6.38;;
20002;SDS011;10162;41.600;23.806;2023-06-22T10:09:28;7.30;;;6.47;;
20002;SDS011;10162;41.600;23.806;2023-06-22T10:11:55;7.35;;;6.28;;
20002;SDS011;10162;41.600;23.806;2023-06-22T10:14:21;8.13;;;6.97;;
20002;SDS011;10162;41.600;23.806;2023-06-22T10:20:41;6.80;;;6.20;;
20002;SDS011;10162;41.600;23.806;2023-06-22T10:23:07;7.70;;;7.00;;
20002;SDS011;10162;41.600;23.806;2023-06-22T10:28:49;7.80;;;7.00;;
20002;SDS011;10162;41.600;23.806;2023-06-22T10:31:15;7.43;;;6.82;;
20002;SDS011;10162;41.600;23.806;2023-06-22T10:33:42;6.60;;;6.00;;
20002;SDS011;10162;41.600;23.806;2023-06-22T10:39:17;7.38;;;6.50;;
20002;SDS011;10162;41.600;23.806;2023-06-22T10:41:43;7.03;;;6.15;;
20002;SDS011;10162;41.600;23.806;2023-06-22T10:44:08;6.72;;;6.03;;
20002;SDS011;10162;41.600;23.806;2023-06-22T10:50:28;7.40;;;6.60;;
20002;SDS011;10162;41.600;23.806;2023-06-22T10:52:55;7.22;;;6.53;;
20002;SDS011;10162;41.600;23.806;2023-06-22T10:59:14;6.05;;;5.55;;
20002;SDS011;10162;41.600;23.806;2023-06-22T11:01:40;6.50;;;6.00;;
20002;SDS011;10162;41.600;23.806;2023-06-22T11:04:06;6.88;;;6.28;;
20002;SDS011;10162;41.600;23.806;2023-06-22T11:09:48;6.82;;;6.22;;
20002;SDS011;10162;41.600;23.806;2023-06-22T11:12:14;7.18;;;6.03;;
20002;SDS011;10162;41.600;23.806;2023-06-22T11:14:39;6.93;;;6.22;;
20002;SDS011;10162;41.600;23.806;2023-06-22T11:17:05;6.72;;;6.13;;
20002;SDS011;10162;41.600;23.806;2023-06-22T11:19:31;6.47;;;5.90;;
20002;SDS011;10162;41.600;23.806;2023-06-22T11:21:57;6.47;;;5.88;;
20002;SDS011;10162;41.600;23.806;2023-06-22T11:24:22;7.88;;;6.95;;
20002;SDS011;10162;41.600;23.806;2023-06-22T11:29:58;6.35;;;5.78;;
20002;SDS011;10162;41.600;23.806;2023-06-22T11:32:24;6.55;;;5.95;;
20002;SDS011;10162;41.600;23.806;2023-06-22T11:37:21;6.50;;;6.00;;
20002;SDS011;10162;41.600;23.806;2023-06-22T11:39:46;6.18;;;5.68;;
20002;SDS011;10162;41.600;23.806;2023-06-22T11:42:13;6.20;;;5.70;;
20002;SDS011;10162;41.600;23.806;2023-06-22T11:44:38;6.93;;;6.22;;
20002;SDS011;10162;41.600;23.806;2023-06-22T11:47:04;5.78;;;5.32;;
20002;SDS011;10162;41.600;23.806;2023-06-22T11:49:31;6.30;;;5.80;;
20002;SDS011;10162;41.600;23.806;2023-06-22T11:51:57;7.22;;;6.53;;
20002;SDS011;10162;41.600;23.806;2023-06-22T11:54:23;7.00;;;6.40;;
20002;SDS011;10162;41.600;23.806;2023-06-22T12:00:44;6.20;;;5.60;;
20002;SDS011;10162;41.600;23.806;2023-06-22T12:03:10;6.18;;;5.65;;
20002;SDS011;10162;41.600;23.806;2023-06-22T12:08:29;7.43;;;5.93;;
20002;SDS011;10162;41.600;23.806;2023-06-22T12:10:55;7.20;;;6.47;;
20002;SDS011;10162;41.600;23.806;2023-06-22T12:13:22;8.63;;;5.60;;
20002;SDS011;10162;41.600;23.806;2023-06-22T12:18:59;7.07;;;6.47;;
20002;SDS011;10162;41.600;23.806;2023-06-22T12:22:00;6.05;;;5.55;;
20002;SDS011;10162;41.600;23.806;2023-06-22T12:24:25;6.55;;;5.93;;
20002;SDS011;10162;41.600;23.806;2023-06-22T12:29:38;6.80;;;6.20;;
20002;SDS011;10162;41.600;23.806;2023-06-22T12:32:04;6.70;;;6.10;;
20002;SDS011;10162;41.600;23.806;2023-06-22T12:34:30;6.55;;;5.97;;
20002;SDS011;10162;41.600;23.806;2023-06-22T12:40:50;7.30;;;6.70;;
20002;SDS011;10162;41.600;23.806;2023-06-22T12:43:16;7.43;;;6.72;;
20002;SDS011;10162;41.600;23.806;2023-06-22T12:49:36;7.70;;;6.85;;
20002;SDS011;10162;41.600;23.806;2023-06-22T12:52:02;6.88;;;6.28;;
20002;SDS011;10162;41.600;23.806;2023-06-22T12:54:33;7.05;;;6.45;;
20002;SDS011;10162;41.600;23.806;2023-06-22T13:00:20;9.48;;;7.57;;
20002;SDS011;10162;41.600;23.806;2023-06-22T13:02:46;8.13;;;6.50;;
20002;SDS011;10162;41.600;23.806;2023-06-22T13:09:09;6.68;;;5.97;;
20002;SDS011;10162;41.600;23.806;2023-06-22T13:11:35;6.53;;;6.03;;
20002;SDS011;10162;41.600;23.806;2023-06-22T13:14:01;6.68;;;6.15;;
20002;SDS011;10162;41.600;23.806;2023-06-22T13:16:42;7.47;;;6.78;;
20002;SDS011;10162;41.600;23.806;2023-06-22T13:19:08;7.20;;;6.53;;
20002;SDS011;10162;41.600;23.806;2023-06-22T13:21:33;7.22;;;6.57;;
20002;SDS011;10162;41.600;23.806;2023-06-22T13:23:59;7.28;;;6.57;;
20002;SDS011;10162;41.600;23.806;2023-06-22T13:29:47;8.02;;;5.93;;
20002;SDS011;10162;41.600;23.806;2023-06-22T13:32:13;7.05;;;6.38;;
20002;SDS011;10162;41.600;23.806;2023-06-22T13:34:39;7.97;;;7.18;;
20002;SDS011;10162;41.600;23.806;2023-06-22T13:37:04;11.90;;;7.50;;
20002;SDS011;10162;41.600;23.806;2023-06-22T13:39:31;8.15;;;7.38;;
20002;SDS011;10162;41.600;23.806;2023-06-22T13:41:57;7.63;;;6.80;;
20002;SDS011;10162;41.600;23.806;2023-06-22T13:44:24;8.70;;;7.55;;
20002;SDS011;10162;41.600;23.806;2023-06-22T13:47:02;8.27;;;7.53;;
20002;SDS011;10162;41.600;23.806;2023-06-22T13:49:28;10.50;;;7.30;;
20002;SDS011;10162;41.600;23.806;2023-06-22T13:51:54;7.68;;;6.95;;
20002;SDS011;10162;41.600;23.806;2023-06-22T13:54:21;8.10;;;7.30;;
20002;SDS011;10162;41.600;23.806;2023-06-22T13:57:04;7.63;;;6.65;;
20002;SDS011;10162;41.600;23.806;2023-06-22T13:59:32;7.40;;;6.75;;
20002;SDS011;10162;41.600;23.806;2023-06-22T14:01:57;7.72;;;6.97;;
20002;SDS011;10162;41.600;23.806;2023-06-22T14:04:24;11.00;;;7.47;;
20002;SDS011;10162;41.600;23.806;2023-06-22T14:07:04;7.90;;;7.20;;
20002;SDS011;10162;41.600;23.806;2023-06-22T14:09:30;7.55;;;6.80;;
20002;SDS011;10162;41.600;23.806;2023-06-22T14:11:56;7.78;;;7.10;;
20002;SDS011;10162;41.600;23.806;2023-06-22T14:14:22;8.45;;;7.75;;
20002;SDS011;10162;41.600;23.806;2023-06-22T14:19:36;7.55;;;6.90;;
20002;SDS011;10162;41.600;23.806;2023-06-22T14:22:02;9.90;;;7.15;;
20002;SDS011;10162;41.600;23.806;2023-06-22T14:24:28;8.38;;;7.28;;
20002;SDS011;10162;41.600;23.806;2023-06-22T14:27:11;7.13;;;6.53;;
20002;SDS011;10162;41.600;23.806;2023-06-22T14:29:38;7.78;;;7.00;;
20002;SDS011;10162;41.600;23.806;2023-06-22T14:32:04;9.32;;;7.28;;
20002;SDS011;10162;41.600;23.806;2023-06-22T14:34:32;7.60;;;7.00;;
20002;SDS011;10162;41.600;23.806;2023-06-22T14:37:06;20.20;;;7.47;;
20002;SDS011;10162;41.600;23.806;2023-06-22T14:39:34;9.73;;;6.93;;
20002;SDS011;10162;41.600;23.806;2023-06-22T14:41:59;8.02;;;7.22;;
20002;SDS011;10162;41.600;23.806;2023-06-22T14:44:27;8.02;;;7.15;;
20002;SDS011;10162;41.600;23.806;2023-06-22T14:50:02;8.18;;;7.38;;
20002;SDS011;10162;41.600;23.806;2023-06-22T14:52:29;8.30;;;7.50;;
20002;SDS011;10162;41.600;23.806;2023-06-22T14:55:13;7.75;;;7.05;;
20002;SDS011;10162;41.600;23.806;2023-06-22T14:57:40;7.60;;;6.90;;
20002;SDS011;10162;41.600;23.806;2023-06-22T15:00:06;8.02;;;7.22;;
20002;SDS011;10162;41.600;23.806;2023-06-22T15:02:32;8.52;;;7.32;;
20002;SDS011;10162;41.600;23.806;2023-06-22T15:05:00;8.38;;;7.57;;
20002;SDS011;10162;41.600;23.806;2023-06-22T15:07:25;8.52;;;7.38;;
20002;SDS011;10162;41.600;23.806;2023-06-22T15:09:51;8.20;;;7.35;;
20002;SDS011;10162;41.600;23.806;2023-06-22T15:12:17;7.93;;;7.13;;
20002;SDS011;10162;41.600;23.806;2023-06-22T15:17:47;8.50;;;7.60;;
20002;SDS011;10162;41.600;23.806;2023-06-22T15:20:12;7.45;;;6.65;;
20002;SDS011;10162;41.600;23.806;2023-06-22T15:22:40;9.77;;;7.32;;
20002;SDS011;10162;41.600;23.806;2023-06-22T15:28:14;10.40;;;7.65;;
20002;SDS011;10162;41.600;23.806;2023-06-22T15:30:39;9.60;;;7.78;;
20002;SDS011;10162;41.600;23.806;2023-06-22T15:33:07;9.32;;;7.25;;
20002;SDS011;10162;41.600;23.806;2023-06-22T15:35:32;13.32;;;7.85;;
20002;SDS011;10162;41.600;23.806;2023-06-22T15:37:58;8.13;;;7.38;;
20002;SDS011;10162;41.600;23.806;2023-06-22T15:40:24;8.85;;;8.05;;
20002;SDS011;10162;41.600;23.806;2023-06-22T15:42:50;9.25;;;7.70;;
20002;SDS011;10162;41.600;23.806;2023-06-22T15:49:27;8.40;;;7.50;;
20002;SDS011;10162;41.600;23.806;2023-06-22T15:51:54;9.10;;;7.95;;
20002;SDS011;10162;41.600;23.806;2023-06-22T15:54:19;9.13;;;8.18;;
20002;SDS011;10162;41.600;23.806;2023-06-22T15:59:40;10.30;;;8.55;;
20002;SDS011;10162;41.600;23.806;2023-06-22T16:02:06;12.65;;;8.85;;
20002;SDS011;10162;41.600;23.806;2023-06-22T16:04:34;9.32;;;7.95;;
20002;SDS011;10162;41.600;23.806;2023-06-22T16:07:01;9.57;;;7.03;;
20002;SDS011;10162;41.600;23.806;2023-06-22T16:09:28;8.57;;;7.68;;
20002;SDS011;10162;41.600;23.806;2023-06-22T16:11:56;9.23;;;8.23;;
20002;SDS011;10162;41.600;23.806;2023-06-22T16:14:24;9.02;;;7.80;;
20002;SDS011;10162;41.600;23.806;2023-06-22T16:16:59;14.75;;;10.52;;
20002;SDS011;10162;41.600;23.806;2023-06-22T16:19:25;11.60;;;9.65;;
20002;SDS011;10162;41.600;23.806;2023-06-22T16:21:51;10.40;;;9.38;;
20002;SDS011;10162;41.600;23.806;2023-06-22T16:24:17;10.07;;;8.88;;
20002;SDS011;10162;41.600;23.806;2023-06-22T16:29:30;12.82;;;9.60;;
20002;SDS011;10162;41.600;23.806;2023-06-22T16:31:55;13.20;;;9.43;;
20002;SDS011;10162;41.600;23.806;2023-06-22T16:34:21;10.82;;;9.82;;
20002;SDS011;10162;41.600;23.806;2023-06-22T16:36:47;11.70;;;10.48;;
20002;SDS011;10162;41.600;23.806;2023-06-22T16:39:13;10.68;;;9.63;;
20002;SDS011;10162;41.600;23.806;2023-06-22T16:41:39;10.82;;;9.65;;
20002;SDS011;10162;41.600;23.806;2023-06-22T16:44:06;11.13;;;9.90;;
20002;SDS011;10162;41.600;23.806;2023-06-22T16:49:17;11.63;;;9.70;;
20002;SDS011;10162;41.600;23.806;2023-06-22T16:51:42;10.77;;;9.23;;
20002;SDS011;10162;41.600;23.806;2023-06-22T16:54:10;11.73;;;8.88;;
20002;SDS011;10162;41.600;23.806;2023-06-22T16:59:29;18.50;;;12.05;;
20002;SDS011;10162;41.600;23.806;2023-06-22T17:01:55;11.45;;;10.00;;
20002;SDS011;10162;41.600;23.806;2023-06-22T17:04:23;11.45;;;9.45;;
20002;SDS011;10162;41.600;23.806;2023-06-22T17:09:29;9.63;;;8.63;;
20002;SDS011;10162;41.600;23.806;2023-06-22T17:11:56;10.18;;;9.00;;
20002;SDS011;10162;41.600;23.806;2023-06-22T17:14:25;11.63;;;9.43;;
20002;SDS011;10162;41.600;23.806;2023-06-22T17:19:45;13.43;;;8.85;;
20002;SDS011;10162;41.600;23.806;2023-06-22T17:22:12;9.85;;;8.85;;
20002;SDS011;10162;41.600;23.806;2023-06-22T17:24:39;12.10;;;8.93;;
20002;SDS011;10162;41.600;23.806;2023-06-22T17:27:06;10.23;;;9.18;;
20002;SDS011;10162;41.600;23.806;2023-06-22T17:29:32;10.50;;;9.00;;
20002;SDS011;10162;41.600;23.806;2023-06-22T17:31:58;10.38;;;8.95;;
20002;SDS011;10162;41.600;23.806;2023-06-22T17:34:28;10.43;;;9.30;;
20002;SDS011;10162;41.600;23.806;2023-06-22T17:40:51;11.00;;;9.23;;
20002;SDS011;10162;41.600;23.806;2023-06-22T17:43:21;13.68;;;10.60;;
20002;SDS011;10162;41.600;23.806;2023-06-22T17:48:47;16.15;;;11.38;;
20002;SDS011;10162;41.600;23.806;2023-06-22T17:51:13;10.75;;;9.65;;
20002;SDS011;10162;41.600;23.806;2023-06-22T17:53:48;9.27;;;8.38;;
20002;SDS011;10162;41.600;23.806;2023-06-22T17:58:52;11.60;;;9.15;;
20002;SDS011;10162;41.600;23.806;2023-06-22T18:01:32;14.15;;;8.73;;
20002;SDS011;10162;41.600;23.806;2023-06-22T18:04:10;11.95;;;9.52;;
20002;SDS011;10162;41.600;23.806;2023-06-22T18:09:36;12.15;;;9.95;;
20002;SDS011;10162;41.600;23.806;2023-06-22T18:12:02;11.15;;;8.90;;
20002;SDS011;10162;41.600;23.806;2023-06-22T18:14:32;12.18;;;9.38;;
20002;SDS011;10162;41.600;23.806;2023-06-22T18:19:49;12.43;;;10.32;;
20002;SDS011;10162;41.600;23.806;2023-06-22T18:22:15;14.95;;;10.50;;
20002;SDS011;10162;41.600;23.806;2023-06-22T18:27:42;14.90;;;10.07;;
20002;SDS011;10162;41.600;23.806;2023-06-22T18:30:11;11.25;;;10.23;;
20002;SDS011;10162;41.600;23.806;2023-06-22T18:32:39;10.43;;;9.40;;
20002;SDS011;10162;41.600;23.806;2023-06-22T18:35:22;13.02;;;10.63;;
20002;SDS011;10162;41.600;23.806;2023-06-22T18:37:48;12.57;;;11.27;;
20002;SDS011;10162;41.600;23.806;2023-06-22T18:40:16;11.93;;;10.68;;
20002;SDS011;10162;41.600;23.806;2023-06-22T18:42:45;11.25;;;10.07;;
20002;SDS011;10162;41.600;23.806;2023-06-22T18:49:07;11.38;;;9.32;;
20002;SDS011;10162;41.600;23.806;2023-06-22T18:51:49;12.38;;;10.13;;
20002;SDS011;10162;41.600;23.806;2023-06-22T18:54:19;17.73;;;11.50;;
20002;SDS011;10162;41.600;23.806;2023-06-22T19:08:15;12.97;;;11.50;;
20002;SDS011;10162;41.600;23.806;2023-06-22T19:10:41;14.63;;;11.20;;
20002;SDS011;10162;41.600;23.806;2023-06-22T19:15:39;12.40;;;11.10;;
20002;SDS011;10162;41.600;23.806;2023-06-22T19:20:50;12.80;;;10.67;;
20002;SDS011;10162;41.600;23.806;2023-06-22T19:23:25;15.07;;;11.40;;
20002;SDS011;10162;41.600;23.806;2023-06-22T19:25:56;12.63;;;10.83;;
20002;SDS011;10162;41.600;23.806;2023-06-22T19:28:27;13.20;;;11.50;;
20002;SDS011;10162;41.600;23.806;2023-06-22T19:30:54;14.63;;;11.03;;
20002;SDS011;10162;41.600;23.806;2023-06-22T19:33:21;13.10;;;10.57;;
20002;SDS011;10162;41.600;23.806;2023-06-22T19:39:42;13.40;;;10.83;;
20002;SDS011;10162;41.600;23.806;2023-06-22T19:42:09;12.43;;;11.13;;
20002;SDS011;10162;41.600;23.806;2023-06-22T19:44:35;11.93;;;10.27;;
20002;SDS011;10162;41.600;23.806;2023-06-22T19:47:01;12.80;;;11.40;;
20002;SDS011;10162;41.600;23.806;2023-06-22T19:49:27;11.50;;;10.23;;
20002;SDS011;10162;41.600;23.806;2023-06-22T19:51:55;12.00;;;10.80;;
20002;SDS011;10162;41.600;23.806;2023-06-22T19:54:30;12.80;;;11.37;;
20002;SDS011;10162;41.600;23.806;2023-06-22T20:00:50;13.03;;;10.27;;
20002;SDS011;10162;41.600;23.806;2023-06-22T20:03:27;11.57;;;10.37;;
20002;SDS011;10162;41.600;23.806;2023-06-22T20:08:49;14.37;;;11.13;;
20002;SDS011;10162;41.600;23.806;2023-06-22T20:11:27;12.10;;;10.90;;
20002;SDS011;10162;41.600;23.806;2023-06-22T20:14:04;15.17;;;10.60;;
20002;SDS011;10162;41.600;23.806;2023-06-22T20:20:01;12.50;;;11.20;;
20002;SDS011;10162;41.600;23.806;2023-06-22T20:22:27;12.77;;;11.47;;
20002;SDS011;10162;41.600;23.806;2023-06-22T20:28:47;15.70;;;11.07;;